Time;durP1;ratioP1;P1;durP2;ratioP2;P2;SDS_P1;SDS_P2;PMS_P1;PMS_P2;Temp;Humidity;BMP_temperature;BMP_pressure;BME280_temperature;BME280_humidity;BME280_pressure;Samples;Min_cycle;Max_cycle;Signal;HPM_P1;HPM_P2
2023/01/12 00:02:16;;;;;;;9.13;2.27;;;9.70;99.90;;;;;;4984894;28;20204;-68
2023/01/12 00:04:42;;;;;;;4.93;2.20;;;9.60;99.90;;;;;;4984441;28;20180;-69
2023/01/12 00:07:10;;;;;;;10.70;2.27;;;9.60;99.90;;;;;;4981968;28;20243;-70
2023/01/12 00:09:36;;;;;;;14.13;3.33;;;9.60;99.90;;;;;;4978188;28;20213;-69
2023/01/12 00:12:04;;;;;;;9.17;3.53;;;9.60;99.90;;;;;;4988522;28;20220;-69
2023/01/12 00:14:34;;;;;;;14.80;3.53;;;9.50;99.90;;;;;;4976639;28;20216;-70
2023/01/12 00:17:00;;;;;;;9.30;2.47;;;9.50;99.90;;;;;;4987918;28;20250;-69
2023/01/12 00:19:25;;;;;;;10.43;2.90;;;9.50;99.90;;;;;;4992329;28;20600;-69
2023/01/12 00:22:10;;;;;;;6.83;1.93;;;9.50;99.90;;;;;;4974778;28;20204;-69
2023/01/12 00:24:39;;;;;;;12.77;2.23;;;9.50;99.90;;;;;;4987931;28;20184;-69
2023/01/12 00:27:07;;;;;;;4.40;2.23;;;9.50;99.90;;;;;;4977288;28;20671;-71
2023/01/12 00:29:33;;;;;;;14.57;2.47;;;9.40;99.90;;;;;;4989324;28;20243;-70
2023/01/12 00:32:02;;;;;;;5.43;2.07;;;9.40;99.90;;;;;;4982124;28;20255;-69
2023/01/12 00:34:28;;;;;;;7.17;1.83;;;9.40;99.90;;;;;;4983276;28;20621;-69
2023/01/12 00:36:54;;;;;;;14.43;2.00;;;9.50;99.90;;;;;;4982214;28;20283;-70
2023/01/12 00:39:20;;;;;;;7.73;2.27;;;9.50;99.90;;;;;;4984205;28;20263;-69
2023/01/12 00:47:16;;;;;;;5.87;2.20;;;9.60;99.90;;;;;;4975098;28;20564;-69
2023/01/12 00:49:42;;;;;;;4.33;2.53;;;9.70;99.90;;;;;;4979351;28;20223;-69
2023/01/12 00:52:10;;;;;;;11.20;2.90;;;9.70;99.90;;;;;;4987985;28;20280;-70
2023/01/12 00:54:37;;;;;;;9.53;3.53;;;9.60;99.90;;;;;;4984505;28;20559;-72
2023/01/12 00:57:04;;;;;;;5.50;2.60;;;9.60;99.90;;;;;;4985191;28;20591;-69
2023/01/12 00:59:29;;;;;;;8.40;2.10;;;9.60;99.90;;;;;;4991980;28;20202;-70
2023/01/12 01:01:55;;;;;;;14.33;2.93;;;9.60;99.90;;;;;;4988815;28;20180;-69
2023/01/12 01:04:21;;;;;;;2.23;1.97;;;9.60;99.90;;;;;;4977718;28;20724;-75
2023/01/12 01:06:47;;;;;;;8.23;2.67;;;9.60;99.90;;;;;;4989949;28;20661;-70
2023/01/12 01:09:13;;;;;;;3.23;1.97;;;9.70;99.90;;;;;;4980090;28;20208;-69
2023/01/12 01:11:39;;;;;;;8.20;2.23;;;9.70;99.90;;;;;;4975129;28;20212;-71
2023/01/12 01:14:04;;;;;;;10.80;3.00;;;9.70;99.90;;;;;;4975023;28;20224;-70
2023/01/12 01:16:31;;;;;;;10.20;2.57;;;9.80;99.90;;;;;;4974763;28;20193;-70
2023/01/12 01:18:58;;;;;;;13.43;2.63;;;9.80;99.90;;;;;;4983367;28;20192;-69
2023/01/12 01:21:24;;;;;;;11.40;3.33;;;9.70;99.90;;;;;;4978393;28;20187;-70
2023/01/12 01:23:50;;;;;;;11.27;2.77;;;9.70;99.90;;;;;;4972402;28;20204;-70
2023/01/12 01:26:19;;;;;;;4.00;1.87;;;9.70;99.90;;;;;;4981578;28;20192;-69
2023/01/12 01:28:45;;;;;;;7.00;2.23;;;9.60;99.90;;;;;;4974319;28;20607;-70
2023/01/12 01:31:16;;;;;;;11.17;2.50;;;9.70;99.90;;;;;;4980634;28;20668;-70
2023/01/12 01:33:42;;;;;;;8.50;1.83;;;9.70;99.90;;;;;;4988735;28;20192;-69
2023/01/12 01:36:09;;;;;;;6.90;1.80;;;9.90;99.90;;;;;;4982038;28;20196;-69
2023/01/12 01:38:36;;;;;;;7.57;3.07;;;9.70;99.90;;;;;;4992762;28;20188;-70
2023/01/12 01:41:02;;;;;;;4.17;1.53;;;9.70;99.90;;;;;;4988710;28;20173;-69
2023/01/12 01:43:46;;;;;;;8.27;2.67;;;9.70;99.90;;;;;;4975047;28;20198;-70
2023/01/12 01:46:15;;;;;;;6.30;2.23;;;9.70;99.90;;;;;;4976590;28;20653;-70
2023/01/12 01:48:42;;;;;;;4.43;1.63;;;9.80;99.90;;;;;;4983422;28;20192;-70
2023/01/12 01:51:12;;;;;;;4.23;1.83;;;9.70;99.90;;;;;;4976910;28;20217;-70
2023/01/12 01:53:43;;;;;;;8.07;3.07;;;9.80;99.90;;;;;;4988241;28;20195;-69
2023/01/12 01:56:18;;;;;;;9.17;2.67;;;9.70;99.90;;;;;;4976894;28;20247;-69
2023/01/12 01:58:49;;;;;;;4.27;1.97;;;9.70;99.90;;;;;;4978333;28;20279;-69
2023/01/12 02:01:15;;;;;;;9.60;1.80;;;9.70;99.90;;;;;;4988816;28;20199;-69
2023/01/12 02:03:41;;;;;;;5.43;1.70;;;9.70;99.90;;;;;;4982919;28;20187;-70
2023/01/12 02:06:08;;;;;;;5.73;2.10;;;9.70;99.90;;;;;;4992733;28;20238;-68
2023/01/12 02:08:44;;;;;;;5.53;1.90;;;9.80;99.90;;;;;;4984441;28;20185;-69
2023/01/12 02:17:00;;;;;;;9.30;2.00;;;9.70;99.90;;;;;;4973376;28;20680;-69
2023/01/12 02:19:44;;;;;;;1.93;1.50;;;9.70;99.90;;;;;;4985977;28;20190;-69
2023/01/12 02:22:37;;;;;;;4.83;1.73;;;9.70;99.90;;;;;;4976946;28;20235;-69
2023/01/12 02:25:28;;;;;;;9.00;1.80;;;9.70;99.90;;;;;;4980315;28;20188;-70
2023/01/12 02:28:30;;;;;;;7.80;1.50;;;9.70;99.90;;;;;;4974577;28;20207;-69
2023/01/12 02:31:14;;;;;;;11.80;4.10;;;9.80;99.90;;;;;;4983227;28;20208;-69
2023/01/12 02:33:58;;;;;;;8.07;2.07;;;9.90;99.90;;;;;;4988440;28;20200;-69
2023/01/12 02:36:43;;;;;;;1.63;1.57;;;9.80;99.90;;;;;;4982705;28;20184;-69
2023/01/12 02:39:24;;;;;;;7.27;1.97;;;9.70;99.90;;;;;;4981253;28;20184;-67
2023/01/12 02:45:06;;;;;;;6.70;2.10;;;9.60;99.90;;;;;;4984076;28;20249;-68
2023/01/12 02:47:53;;;;;;;8.93;1.47;;;9.70;99.90;;;;;;4986758;28;20180;-67
2023/01/12 02:50:28;;;;;;;4.10;1.73;;;9.70;99.90;;;;;;4973622;28;20323;-67
2023/01/12 02:52:58;;;;;;;7.13;2.00;;;9.60;99.90;;;;;;4973667;28;20204;-67
2023/01/12 02:55:27;;;;;;;6.77;2.37;;;9.60;99.90;;;;;;4973616;28;20185;-68
2023/01/12 02:57:55;;;;;;;5.37;1.53;;;9.60;99.90;;;;;;4988916;28;20192;-68
2023/01/12 03:00:21;;;;;;;1.70;1.50;;;9.70;99.90;;;;;;4987808;28;20192;-68
2023/01/12 03:02:47;;;;;;;8.53;1.73;;;9.70;99.90;;;;;;4981467;28;20192;-67
2023/01/12 03:05:12;;;;;;;3.50;1.47;;;9.70;99.90;;;;;;4982095;28;20193;-66
2023/01/12 03:07:53;;;;;;;9.13;2.27;;;9.80;99.90;;;;;;4976111;28;20195;-68
2023/01/12 03:10:46;;;;;;;12.80;1.47;;;9.70;99.90;;;;;;4985797;28;20219;-68
2023/01/12 03:13:15;;;;;;;13.20;4.37;;;9.70;99.90;;;;;;4973685;28;20199;-67
2023/01/12 03:15:46;;;;;;;10.83;1.80;;;9.80;99.90;;;;;;4985538;28;20192;-67
2023/01/12 03:18:17;;;;;;;8.30;2.20;;;9.80;99.90;;;;;;4979279;28;20180;-70
2023/01/12 03:20:50;;;;;;;5.93;1.50;;;9.80;99.90;;;;;;4989744;28;20188;-67
2023/01/12 03:23:32;;;;;;;11.00;1.63;;;9.80;99.90;;;;;;4982107;28;20187;-67
2023/01/12 03:25:59;;;;;;;10.40;2.03;;;9.80;99.90;;;;;;4979150;28;20267;-68
2023/01/12 03:28:32;;;;;;;4.87;1.70;;;9.80;99.90;;;;;;4977483;28;20184;-68
2023/01/12 03:31:04;;;;;;;6.13;2.27;;;9.80;99.90;;;;;;4975028;28;20215;-67
2023/01/12 03:33:30;;;;;;;4.37;2.10;;;9.70;99.90;;;;;;4976895;28;20546;-67
2023/01/12 03:36:22;;;;;;;6.73;2.47;;;9.80;99.90;;;;;;4979969;28;20261;-67
2023/01/12 03:39:23;;;;;;;7.83;2.07;;;9.80;99.90;;;;;;4988963;28;20185;-69
2023/01/12 03:42:16;;;;;;;10.80;2.23;;;9.80;99.90;;;;;;4981665;28;20189;-67
2023/01/12 03:45:03;;;;;;;5.40;1.93;;;9.80;99.90;;;;;;4991165;28;20181;-68
2023/01/12 03:47:31;;;;;;;12.27;2.80;;;9.90;99.90;;;;;;4976004;28;20193;-68
2023/01/12 03:50:02;;;;;;;7.17;1.60;;;9.90;99.90;;;;;;4983471;28;20232;-68
2023/01/12 03:52:30;;;;;;;5.27;1.83;;;9.80;99.90;;;;;;4995165;28;20204;-67
2023/01/12 03:54:58;;;;;;;4.37;2.13;;;9.80;99.90;;;;;;4976094;28;20185;-67
2023/01/12 03:57:25;;;;;;;9.83;2.67;;;9.80;99.90;;;;;;4976495;28;20680;-68
2023/01/12 03:59:52;;;;;;;11.83;3.70;;;9.90;99.90;;;;;;4983112;28;20543;-67
2023/01/12 04:02:18;;;;;;;8.97;2.93;;;9.80;99.90;;;;;;4987097;28;20192;-67
2023/01/12 04:04:44;;;;;;;5.13;2.40;;;9.70;99.90;;;;;;4990164;28;20719;-67
2023/01/12 04:07:09;;;;;;;3.80;1.83;;;9.70;99.90;;;;;;4976557;28;20188;-67
2023/01/12 04:09:36;;;;;;;4.50;2.80;;;9.70;99.90;;;;;;4988251;28;20213;-67
2023/01/12 04:12:10;;;;;;;5.73;2.13;;;9.70;99.90;;;;;;4989008;28;20279;-66
2023/01/12 04:14:44;;;;;;;11.03;2.23;;;9.60;99.90;;;;;;4994798;28;20195;-69
2023/01/12 04:17:12;;;;;;;4.20;2.30;;;9.70;99.90;;;;;;4990019;28;20219;-68
2023/01/12 04:19:38;;;;;;;9.17;2.40;;;9.70;99.90;;;;;;4984190;28;20227;-68
2023/01/12 04:24:47;;;;;;;7.17;1.77;;;9.70;99.90;;;;;;4981987;28;20207;-68
2023/01/12 04:27:14;;;;;;;5.77;3.33;;;9.70;99.90;;;;;;4989456;28;20185;-67
2023/01/12 04:29:40;;;;;;;9.97;1.87;;;9.60;99.90;;;;;;4980761;28;20279;-68
2023/01/12 04:32:06;;;;;;;5.37;1.43;;;9.60;99.90;;;;;;4993387;28;20561;-67
2023/01/12 04:34:31;;;;;;;3.60;1.30;;;9.60;99.90;;;;;;4991448;28;20188;-67
2023/01/12 04:36:57;;;;;;;1.67;1.20;;;9.60;99.90;;;;;;4975867;28;20195;-66
2023/01/12 04:39:23;;;;;;;4.00;1.90;;;9.60;99.90;;;;;;4974791;28;20193;-67
2023/01/12 04:41:48;;;;;;;5.70;1.10;;;9.60;99.90;;;;;;4978675;28;20199;-67
2023/01/12 04:44:14;;;;;;;10.40;1.77;;;9.70;99.90;;;;;;4981369;28;20242;-67
2023/01/12 04:46:40;;;;;;;2.47;1.63;;;9.70;99.90;;;;;;4988907;28;20189;-66
2023/01/12 04:49:05;;;;;;;15.30;3.37;;;9.70;99.90;;;;;;4990936;28;20212;-68
2023/01/12 04:51:31;;;;;;;13.03;2.23;;;9.60;99.90;;;;;;4975591;28;20616;-67
2023/01/12 04:53:57;;;;;;;3.73;1.57;;;9.60;99.90;;;;;;4975841;28;20216;-68
2023/01/12 04:56:22;;;;;;;7.20;1.97;;;9.60;99.90;;;;;;4974298;28;20247;-68
2023/01/12 04:58:48;;;;;;;4.27;1.50;;;9.60;99.90;;;;;;4975351;28;20223;-67
2023/01/12 05:01:18;;;;;;;5.67;1.80;;;9.60;99.90;;;;;;4976507;28;20259;-67
2023/01/12 05:03:44;;;;;;;10.20;1.60;;;9.60;99.90;;;;;;4980177;28;20705;-67
2023/01/12 05:06:10;;;;;;;5.73;2.03;;;9.70;99.90;;;;;;4974715;28;20204;-67
2023/01/12 05:11:27;;;;;;;12.17;2.80;;;9.60;99.90;;;;;;4978881;28;20733;-67
2023/01/12 05:13:53;;;;;;;7.17;1.63;;;9.70;99.90;;;;;;4974056;28;20187;-67
2023/01/12 05:16:19;;;;;;;2.50;1.10;;;9.80;99.90;;;;;;4982032;28;20590;-67
2023/01/12 05:18:45;;;;;;;7.33;1.30;;;9.90;99.90;;;;;;4973719;28;20204;-66
2023/01/12 05:21:12;;;;;;;4.80;1.00;;;9.80;99.90;;;;;;4974334;28;20192;-69
2023/01/12 05:23:38;;;;;;;2.50;1.50;;;9.80;99.90;;;;;;4989448;28;20189;-67
2023/01/12 05:26:04;;;;;;;2.73;1.60;;;9.70;99.90;;;;;;4974381;28;20262;-68
2023/01/12 05:28:31;;;;;;;2.47;1.70;;;9.70;99.90;;;;;;4983700;28;20271;-67
2023/01/12 05:31:06;;;;;;;4.03;2.30;;;9.70;99.90;;;;;;4989223;28;20211;-67
2023/01/12 05:33:32;;;;;;;3.27;2.97;;;9.70;99.90;;;;;;4990768;28;20246;-67
2023/01/12 05:35:58;;;;;;;2.97;2.40;;;9.60;99.90;;;;;;4977961;28;20192;-66
2023/01/12 05:38:24;;;;;;;2.00;1.77;;;9.60;99.90;;;;;;4981669;28;20200;-66
2023/01/12 05:40:49;;;;;;;5.30;1.67;;;9.70;99.90;;;;;;4977983;28;20188;-67
2023/01/12 05:46:04;;;;;;;4.00;1.60;;;9.70;99.90;;;;;;4987889;28;20199;-66
2023/01/12 05:48:31;;;;;;;4.73;1.20;;;9.70;99.90;;;;;;4976718;28;20215;-67
2023/01/12 05:51:04;;;;;;;5.60;2.10;;;9.60;99.90;;;;;;4991112;28;20576;-66
2023/01/12 05:53:30;;;;;;;2.83;2.63;;;9.80;99.90;;;;;;4977498;28;20569;-66
2023/01/12 05:55:56;;;;;;;6.63;1.80;;;9.60;99.90;;;;;;4981009;28;20204;-66
2023/01/12 05:58:23;;;;;;;4.77;2.03;;;9.70;99.90;;;;;;4992237;28;20184;-66
2023/01/12 06:00:48;;;;;;;4.20;1.60;;;9.60;99.90;;;;;;4990087;28;20211;-67
2023/01/12 06:03:14;;;;;;;1.77;1.07;;;9.60;99.90;;;;;;4988706;28;20641;-67
2023/01/12 06:05:40;;;;;;;5.17;1.43;;;9.70;99.90;;;;;;4982687;28;20188;-66
2023/01/12 06:08:06;;;;;;;2.47;1.20;;;9.70;99.90;;;;;;4989856;28;20188;-66
2023/01/12 06:10:33;;;;;;;8.83;1.87;;;9.70;99.90;;;;;;4984740;28;20657;-67
2023/01/12 06:15:43;;;;;;;4.47;0.93;;;9.80;99.90;;;;;;4986458;28;20200;-66
2023/01/12 06:18:09;;;;;;;4.43;1.40;;;9.70;99.90;;;;;;4973542;28;20557;-67
2023/01/12 06:20:35;;;;;;;6.43;1.60;;;9.70;99.90;;;;;;4973229;28;20200;-67
2023/01/12 06:23:01;;;;;;;1.60;0.90;;;9.60;99.90;;;;;;4976879;28;20573;-66
2023/01/12 06:25:30;;;;;;;2.53;1.43;;;9.70;99.90;;;;;;4976448;28;20188;-67
2023/01/12 06:27:56;;;;;;;4.50;1.77;;;9.70;99.90;;;;;;4974922;28;20185;-67
2023/01/12 06:30:22;;;;;;;1.80;1.00;;;9.70;99.90;;;;;;4972882;28;20201;-67
2023/01/12 06:32:48;;;;;;;6.60;2.60;;;9.70;99.90;;;;;;4983876;28;20203;-68
2023/01/12 06:35:14;;;;;;;3.03;1.43;;;9.80;99.90;;;;;;4978491;28;20632;-68
2023/01/12 06:37:40;;;;;;;5.93;1.40;;;9.80;99.90;;;;;;4973906;28;20592;-68
2023/01/12 06:40:06;;;;;;;3.37;1.20;;;9.80;99.90;;;;;;4975148;28;20199;-68
2023/01/12 06:42:32;;;;;;;5.50;1.40;;;9.80;99.90;;;;;;4980831;28;20180;-67
2023/01/12 06:45:02;;;;;;;7.87;1.17;;;9.80;99.90;;;;;;4982860;28;20244;-68
2023/01/12 06:47:30;;;;;;;2.73;1.63;;;9.80;99.90;;;;;;4975287;28;20191;-67
2023/01/12 06:49:56;;;;;;;7.33;2.10;;;9.70;99.90;;;;;;4972462;28;20208;-67
2023/01/12 06:52:25;;;;;;;2.90;1.43;;;9.80;99.90;;;;;;4975871;28;20715;-68
2023/01/12 06:54:51;;;;;;;4.73;1.80;;;9.70;99.90;;;;;;4973803;28;20227;-66
2023/01/12 06:57:18;;;;;;;3.47;1.43;;;9.90;99.90;;;;;;4976468;28;20549;-67
2023/01/12 06:59:44;;;;;;;4.43;1.83;;;9.90;99.90;;;;;;4973183;28;20276;-67
2023/01/12 07:02:15;;;;;;;4.10;1.37;;;9.90;99.90;;;;;;4978444;28;20196;-67
2023/01/12 07:04:41;;;;;;;3.97;1.43;;;9.90;99.90;;;;;;4977264;28;20557;-68
2023/01/12 07:07:08;;;;;;;1.60;1.50;;;9.90;99.90;;;;;;4977546;28;20184;-67
2023/01/12 07:09:35;;;;;;;5.57;1.27;;;10.00;99.90;;;;;;4986687;28;20864;-67
2023/01/12 07:12:02;;;;;;;2.63;1.33;;;10.00;99.90;;;;;;4994394;28;20192;-67
2023/01/12 07:14:27;;;;;;;1.97;1.43;;;10.00;99.90;;;;;;4993205;28;20560;-67
2023/01/12 07:16:53;;;;;;;7.40;1.43;;;10.00;99.90;;;;;;4982723;28;20199;-69
2023/01/12 07:19:19;;;;;;;6.97;1.63;;;10.00;99.90;;;;;;4987811;28;20652;-68
2023/01/12 07:21:46;;;;;;;9.80;3.67;;;10.10;99.90;;;;;;4989024;28;20186;-67
2023/01/12 07:24:12;;;;;;;5.00;1.77;;;10.10;99.90;;;;;;4984267;28;20558;-67
2023/01/12 07:26:37;;;;;;;3.23;1.93;;;10.20;99.90;;;;;;4990235;28;20179;-67
2023/01/12 07:29:03;;;;;;;4.17;1.57;;;10.20;99.90;;;;;;4988441;28;20189;-68
2023/01/12 07:31:29;;;;;;;2.77;0.90;;;10.10;99.90;;;;;;4987539;28;20185;-68
2023/01/12 07:33:55;;;;;;;2.53;1.40;;;10.10;99.90;;;;;;4991776;28;20604;-68
2023/01/12 07:36:21;;;;;;;7.10;2.13;;;10.10;99.90;;;;;;4975226;28;20192;-68
2023/01/12 07:38:47;;;;;;;6.43;1.60;;;10.20;99.90;;;;;;4979227;28;20187;-68
2023/01/12 07:43:58;;;;;;;3.60;1.23;;;10.20;99.90;;;;;;4989533;28;20210;-68
2023/01/12 07:46:24;;;;;;;1.30;1.17;;;10.30;99.90;;;;;;4976781;28;20292;-68
2023/01/12 07:48:50;;;;;;;4.27;1.87;;;10.20;99.90;;;;;;4977277;28;20192;-68
2023/01/12 07:51:16;;;;;;;4.07;1.20;;;10.10;99.90;;;;;;4982862;28;20715;-67
2023/01/12 07:53:42;;;;;;;3.43;1.13;;;10.10;99.90;;;;;;4993424;28;20231;-68
2023/01/12 07:56:08;;;;;;;5.33;1.67;;;10.20;99.90;;;;;;4991671;28;20651;-67
2023/01/12 07:58:35;;;;;;;8.73;2.27;;;10.20;99.90;;;;;;4988992;28;20382;-67
2023/01/12 08:01:01;;;;;;;2.03;1.27;;;10.20;99.90;;;;;;4979868;28;20603;-67
2023/01/12 08:03:27;;;;;;;3.50;1.50;;;10.20;99.90;;;;;;4978180;28;20229;-67
2023/01/12 08:05:54;;;;;;;2.27;1.30;;;10.30;99.90;;;;;;4993799;28;20196;-67
2023/01/12 08:08:20;;;;;;;3.83;1.67;;;10.30;99.90;;;;;;4981528;28;20188;-67
2023/01/12 08:10:48;;;;;;;1.67;1.57;;;10.20;99.90;;;;;;4994635;28;20292;-67
2023/01/12 08:13:21;;;;;;;2.83;1.17;;;10.30;99.90;;;;;;4991989;28;20196;-67
2023/01/12 08:15:49;;;;;;;4.43;1.20;;;10.20;99.90;;;;;;4987092;28;20220;-68
2023/01/12 08:18:26;;;;;;;8.10;1.83;;;10.10;99.90;;;;;;4970112;28;20184;-67
2023/01/12 08:20:54;;;;;;;4.27;1.77;;;10.20;99.90;;;;;;4977160;28;20582;-67
2023/01/12 08:23:25;;;;;;;4.63;2.20;;;10.30;99.90;;;;;;4989565;28;20184;-67
2023/01/12 08:25:58;;;;;;;2.33;1.37;;;10.30;99.90;;;;;;4993375;28;20637;-67
2023/01/12 08:28:30;;;;;;;5.23;1.70;;;10.30;99.90;;;;;;4983525;28;20223;-67
2023/01/12 08:30:55;;;;;;;4.90;2.00;;;10.40;99.90;;;;;;4988894;28;20279;-67
2023/01/12 08:33:21;;;;;;;9.63;2.23;;;10.30;99.90;;;;;;4986342;28;20189;-67
2023/01/12 08:35:48;;;;;;;2.93;1.20;;;10.30;99.90;;;;;;4983615;28;20581;-67
2023/01/12 08:38:14;;;;;;;2.53;1.37;;;10.30;99.90;;;;;;4979998;28;20192;-68
2023/01/12 08:46:08;;;;;;;2.83;1.23;;;10.40;99.90;;;;;;4990511;28;20220;-67
2023/01/12 08:48:36;;;;;;;2.53;1.87;;;10.40;99.90;;;;;;4990316;28;20196;-67
2023/01/12 08:51:02;;;;;;;2.00;1.03;;;10.40;99.90;;;;;;4987639;28;20209;-66
2023/01/12 08:53:28;;;;;;;1.67;1.37;;;10.40;99.90;;;;;;4989932;28;20205;-67
2023/01/12 08:55:54;;;;;;;1.63;1.53;;;10.40;99.90;;;;;;4990959;28;20610;-67
2023/01/12 08:58:19;;;;;;;1.00;1.00;;;10.40;99.90;;;;;;4984061;28;20641;-67
2023/01/12 09:00:45;;;;;;;2.33;1.27;;;10.30;99.90;;;;;;4975377;28;20196;-68
2023/01/12 09:03:11;;;;;;;1.37;1.20;;;10.40;99.90;;;;;;4982880;28;20665;-67
2023/01/12 09:05:36;;;;;;;1.57;1.47;;;10.50;99.90;;;;;;4992628;28;20648;-67
2023/01/12 09:08:02;;;;;;;2.90;1.77;;;10.50;99.90;;;;;;4976856;28;20736;-67
2023/01/12 09:10:28;;;;;;;4.77;1.50;;;10.40;99.90;;;;;;4987499;28;20689;-67
2023/01/12 09:12:54;;;;;;;3.83;1.30;;;10.50;99.90;;;;;;4987845;28;20196;-67
2023/01/12 09:15:21;;;;;;;6.13;1.40;;;10.40;99.90;;;;;;4992535;28;20180;-67
2023/01/12 09:17:54;;;;;;;10.07;1.83;;;10.40;99.90;;;;;;4986163;28;20200;-67
2023/01/12 09:20:20;;;;;;;1.30;1.23;;;10.40;99.90;;;;;;4992272;28;20224;-67
2023/01/12 09:22:46;;;;;;;2.30;1.50;;;10.40;99.90;;;;;;4983028;28;20197;-69
2023/01/12 09:25:12;;;;;;;8.47;1.60;;;10.60;99.90;;;;;;4978358;28;20192;-67
2023/01/12 09:27:38;;;;;;;1.60;1.23;;;10.70;99.90;;;;;;4985654;28;20239;-67
2023/01/12 09:30:05;;;;;;;2.53;1.47;;;10.70;99.90;;;;;;4980438;28;20604;-67
2023/01/12 09:32:31;;;;;;;1.27;1.20;;;10.70;99.90;;;;;;4985595;28;20608;-68
2023/01/12 09:34:58;;;;;;;4.40;1.40;;;10.60;99.90;;;;;;4986503;28;20272;-67
2023/01/12 09:37:25;;;;;;;2.37;1.10;;;10.60;99.90;;;;;;4993030;28;20569;-67
2023/01/12 09:39:50;;;;;;;5.77;1.10;;;10.60;99.90;;;;;;4978304;28;20275;-68
2023/01/12 09:48:02;;;;;;;3.97;1.20;;;10.80;99.90;;;;;;4980822;28;20195;-67
2023/01/12 09:50:36;;;;;;;1.80;1.70;;;10.80;99.90;;;;;;4980351;28;20197;-67
2023/01/12 09:53:21;;;;;;;1.95;1.50;;;10.80;99.90;;;;;;4981063;28;20249;-68
2023/01/12 09:56:08;;;;;;;8.45;1.58;;;10.90;99.90;;;;;;4988312;28;20181;-68
2023/01/12 09:58:46;;;;;;;2.50;1.13;;;10.90;99.90;;;;;;4978311;28;20188;-67
2023/01/12 10:01:14;;;;;;;2.33;1.23;;;10.80;99.90;;;;;;4978448;28;20190;-68
2023/01/12 10:03:41;;;;;;;0.98;0.98;;;10.70;99.90;;;;;;4989080;28;20196;-67
2023/01/12 10:06:13;;;;;;;3.88;1.58;;;10.80;99.90;;;;;;4988403;28;20200;-68
2023/01/12 10:08:46;;;;;;;2.27;1.50;;;10.80;99.90;;;;;;4984671;28;20239;-67
2023/01/12 10:11:37;;;;;;;7.00;1.40;;;10.80;99.90;;;;;;4973302;28;20205;-68
2023/01/12 10:14:28;;;;;;;4.90;1.63;;;10.90;99.90;;;;;;4980851;28;20649;-68
2023/01/12 10:16:53;;;;;;;2.03;1.75;;;10.90;99.90;;;;;;4979889;28;20621;-67
2023/01/12 10:19:47;;;;;;;3.45;1.58;;;10.90;99.90;;;;;;4982201;28;20203;-68
2023/01/12 10:22:35;;;;;;;1.45;1.33;;;10.90;99.90;;;;;;4978993;28;20267;-68
2023/01/12 10:25:19;;;;;;;2.50;2.08;;;10.80;99.90;;;;;;4983368;28;20184;-67
2023/01/12 10:27:46;;;;;;;5.68;1.60;;;10.70;99.90;;;;;;4991325;28;20191;-68
2023/01/12 10:30:25;;;;;;;1.70;1.27;;;10.70;99.90;;;;;;4984745;28;20222;-67
2023/01/12 10:32:50;;;;;;;1.70;1.52;;;10.80;99.90;;;;;;4988304;28;20202;-67
2023/01/12 10:35:19;;;;;;;4.13;1.48;;;10.90;99.90;;;;;;4977240;28;20629;-68
2023/01/12 10:37:50;;;;;;;3.97;1.60;;;10.90;99.90;;;;;;4984843;28;20199;-67
2023/01/12 10:40:31;;;;;;;4.10;2.35;;;10.90;99.90;;;;;;4978629;28;20717;-67
2023/01/12 10:43:18;;;;;;;4.22;1.58;;;10.90;99.90;;;;;;4981386;28;20191;-67
2023/01/12 10:46:00;;;;;;;2.67;1.40;;;10.80;99.90;;;;;;4979424;28;20239;-66
2023/01/12 10:48:26;;;;;;;7.57;2.55;;;10.90;99.90;;;;;;4982497;28;20189;-67
2023/01/12 10:51:01;;;;;;;1.50;1.30;;;10.90;99.90;;;;;;4972028;28;20221;-68
2023/01/12 10:53:34;;;;;;;2.27;1.73;;;10.80;99.90;;;;;;4974143;28;20235;-67
2023/01/12 10:56:09;;;;;;;2.42;1.80;;;10.80;99.90;;;;;;4973642;28;20180;-68
2023/01/12 10:58:34;;;;;;;2.72;2.22;;;10.90;99.90;;;;;;4973991;28;20279;-67
2023/01/12 11:01:01;;;;;;;5.78;1.50;;;10.90;99.90;;;;;;4974938;28;20622;-68
2023/01/12 11:03:36;;;;;;;1.70;1.23;;;10.90;99.90;;;;;;4981228;28;20180;-67
2023/01/12 11:06:29;;;;;;;5.90;1.53;;;10.90;99.90;;;;;;4975589;28;20271;-67
2023/01/12 11:08:55;;;;;;;1.93;1.33;;;10.90;99.90;;;;;;4983901;28;20306;-67
2023/01/12 11:11:32;;;;;;;1.60;1.33;;;10.90;99.90;;;;;;4986541;28;20219;-67
2023/01/12 11:14:03;;;;;;;5.40;2.78;;;10.90;99.90;;;;;;4971767;28;20283;-66
2023/01/12 11:16:36;;;;;;;1.83;1.47;;;10.80;99.90;;;;;;4984654;28;20195;-67
2023/01/12 11:19:20;;;;;;;4.77;2.00;;;10.80;99.90;;;;;;4990896;28;20192;-67
2023/01/12 11:22:30;;;;;;;5.13;1.80;;;10.90;99.90;;;;;;4985333;28;20189;-67
2023/01/12 11:25:27;;;;;;;3.40;1.73;;;10.90;99.90;;;;;;4979330;28;20200;-67
2023/01/12 11:28:20;;;;;;;2.67;1.37;;;10.90;99.90;;;;;;4991533;28;20200;-66
2023/01/12 11:30:57;;;;;;;1.47;1.37;;;11.00;99.90;;;;;;4973795;28;20209;-67
2023/01/12 11:33:31;;;;;;;3.10;1.87;;;11.00;99.90;;;;;;4974710;28;20203;-67
2023/01/12 11:36:29;;;;;;;2.28;1.70;;;10.90;99.90;;;;;;4981429;28;20184;-67
2023/01/12 11:39:05;;;;;;;1.30;1.13;;;10.90;99.90;;;;;;4977021;28;20208;-67
2023/01/12 11:41:38;;;;;;;2.30;1.40;;;10.90;99.90;;;;;;4975532;28;20640;-67
2023/01/12 11:44:30;;;;;;;1.45;1.30;;;11.00;99.90;;;;;;4990373;28;20207;-67
2023/01/12 11:47:05;;;;;;;2.33;0.90;;;11.00;99.90;;;;;;4978355;28;20239;-67
2023/01/12 11:49:49;;;;;;;1.65;1.55;;;11.00;99.90;;;;;;4987696;28;20218;-67
2023/01/12 11:52:15;;;;;;;1.73;1.23;;;11.10;99.90;;;;;;4985644;28;20262;-67
2023/01/12 11:54:41;;;;;;;1.95;1.48;;;11.20;99.90;;;;;;4989835;28;20564;-66
2023/01/12 11:57:19;;;;;;;3.35;1.45;;;11.20;99.90;;;;;;4990738;28;20189;-67
2023/01/12 11:59:45;;;;;;;2.55;1.38;;;11.10;99.90;;;;;;4978809;28;20268;-67
2023/01/12 12:02:31;;;;;;;5.32;1.67;;;11.20;99.90;;;;;;4987358;28;20192;-67
2023/01/12 12:05:06;;;;;;;1.95;1.73;;;11.10;99.90;;;;;;4976681;28;20181;-67
2023/01/12 12:08:00;;;;;;;5.05;2.13;;;11.10;99.90;;;;;;4989923;28;20675;-67
2023/01/12 12:10:34;;;;;;;1.17;1.17;;;11.00;99.90;;;;;;4976511;28;20240;-66
2023/01/12 12:13:27;;;;;;;1.85;1.30;;;11.00;99.90;;;;;;4979981;28;20187;-67
2023/01/12 12:15:55;;;;;;;5.03;1.38;;;10.90;99.90;;;;;;4975123;28;20197;-67
2023/01/12 12:18:21;;;;;;;1.10;1.10;;;11.10;99.90;;;;;;4980882;28;20653;-67
2023/01/12 12:20:56;;;;;;;2.03;1.38;;;11.10;99.90;;;;;;4985341;28;20208;-66
2023/01/12 12:23:24;;;;;;;1.48;1.38;;;11.20;99.90;;;;;;4992689;28;20636;-67
2023/01/12 12:26:20;;;;;;;1.52;1.40;;;11.10;99.90;;;;;;4983876;28;20184;-67
2023/01/12 12:29:13;;;;;;;1.55;1.45;;;11.20;99.90;;;;;;4987766;28;20188;-67
2023/01/12 12:31:49;;;;;;;2.20;1.77;;;11.20;99.90;;;;;;4983460;28;20203;-66
2023/01/12 12:34:44;;;;;;;3.40;3.10;;;11.20;99.90;;;;;;4993003;28;20197;-67
2023/01/12 12:37:12;;;;;;;4.32;1.52;;;11.10;99.90;;;;;;4980231;28;20657;-67
2023/01/12 12:39:54;;;;;;;4.20;1.98;;;11.20;99.90;;;;;;4977267;28;20248;-67
2023/01/12 12:45:21;;;;;;;2.75;1.40;;;11.20;99.90;;;;;;4987104;28;20246;-67
2023/01/12 12:48:10;;;;;;;2.83;1.38;;;11.20;99.90;;;;;;4992655;28;20188;-67
2023/01/12 12:50:42;;;;;;;1.25;1.20;;;11.00;99.90;;;;;;4988240;28;20304;-68
2023/01/12 12:53:34;;;;;;;4.45;1.40;;;11.10;99.90;;;;;;4993757;28;20672;-67
2023/01/12 12:56:06;;;;;;;2.28;1.27;;;11.00;99.90;;;;;;4988611;28;20198;-66
2023/01/12 12:58:41;;;;;;;3.17;1.63;;;11.10;99.90;;;;;;4975447;28;20195;-67
2023/01/12 13:01:19;;;;;;;1.40;1.30;;;11.10;99.90;;;;;;4974033;28;20270;-67
2023/01/12 13:03:45;;;;;;;4.22;1.52;;;11.10;99.90;;;;;;4975124;28;20216;-67
2023/01/12 13:06:24;;;;;;;5.15;1.45;;;11.20;99.90;;;;;;4974700;28;20197;-67
2023/01/12 13:08:52;;;;;;;2.17;1.65;;;11.20;99.90;;;;;;4979706;28;20239;-67
2023/01/12 13:11:19;;;;;;;4.20;2.30;;;11.30;99.90;;;;;;4975081;28;20306;-67
2023/01/12 13:13:58;;;;;;;1.63;1.30;;;11.30;99.90;;;;;;4975995;28;20193;-67
2023/01/12 13:16:28;;;;;;;2.85;1.65;;;11.30;99.90;;;;;;4985413;28;20179;-67
2023/01/12 13:18:53;;;;;;;2.38;1.23;;;11.30;99.90;;;;;;4984447;28;20267;-67
2023/01/12 13:21:25;;;;;;;4.68;1.88;;;11.30;99.90;;;;;;4974734;28;20271;-67
2023/01/12 13:23:52;;;;;;;4.18;2.00;;;11.30;99.90;;;;;;4978234;28;20235;-67
2023/01/12 13:26:33;;;;;;;3.13;1.98;;;11.30;99.90;;;;;;4974427;28;20217;-68
2023/01/12 13:29:36;;;;;;;4.28;1.73;;;11.20;99.90;;;;;;4976283;28;20247;-67
2023/01/12 13:32:28;;;;;;;2.63;2.42;;;11.30;99.90;;;;;;4953624;28;20562;-67
2023/01/12 13:34:53;;;;;;;3.80;2.20;;;11.30;99.90;;;;;;4974191;28;20240;-67
2023/01/12 13:37:46;;;;;;;2.30;1.63;;;11.30;99.90;;;;;;4992205;28;20235;-67
2023/01/12 13:40:27;;;;;;;2.10;2.00;;;11.40;99.90;;;;;;4978033;28;20198;-67
2023/01/12 13:43:15;;;;;;;6.55;2.00;;;11.30;99.90;;;;;;4975318;28;20231;-67
2023/01/12 13:46:03;;;;;;;2.75;1.73;;;11.30;99.90;;;;;;4981013;28;20181;-67
2023/01/12 13:48:34;;;;;;;7.57;1.73;;;11.20;99.90;;;;;;4982002;28;20196;-67
2023/01/12 13:51:24;;;;;;;2.15;1.65;;;11.20;99.90;;;;;;4974009;28;20216;-67
2023/01/12 13:54:11;;;;;;;1.67;1.58;;;11.20;99.90;;;;;;4987676;28;20661;-67
2023/01/12 13:56:38;;;;;;;1.67;1.30;;;11.30;99.90;;;;;;4978329;28;20184;-67